YLEDU EPSC-EPSC
Flight info
| Callsign | YLEDU |
|---|---|
| Flight time | N/A |
| Altitude | 9000 |
| Route | EPSC EPSC |
| Aircraft | C414/L-SDFGIRY/S |
Departure
| Time | 2026-04-15 12:24 |
|---|---|
| Airport | Solidarity Szczecin–Goleniów Airport (EPSC) |
Arrival
| Time | N/A |
|---|---|
| Airport | Solidarity Szczecin–Goleniów Airport (EPSC) |
| Time | Latitude | Longitude | Altitude | Speed | Heading |
|---|---|---|---|---|---|
| 2026-04-15 12:19 | 53.59168 | 14.89723 | 128 ft | 0 kts | 41° |
| 2026-04-15 12:21 | 53.59168 | 14.89722 | 128 ft | 0 kts | 41° |
| 2026-04-15 12:21 | 53.59177 | 14.89729 | 128 ft | 0 kts | 5° |
| 2026-04-15 12:21 | 53.59193 | 14.89710 | 126 ft | 8 kts | 317° |
| 2026-04-15 12:22 | 53.59173 | 14.89564 | 127 ft | 14 kts | 228° |
| 2026-04-15 12:22 | 53.59107 | 14.89429 | 128 ft | 14 kts | 280° |
| 2026-04-15 12:22 | 53.59158 | 14.89310 | 127 ft | 11 kts | 295° |
| 2026-04-15 12:22 | 53.59136 | 14.89203 | 126 ft | 10 kts | 219° |
| 2026-04-15 12:23 | 53.59077 | 14.89125 | 128 ft | 10 kts | 205° |
| 2026-04-15 12:23 | 53.58988 | 14.89229 | 130 ft | 37 kts | 132° |
| 2026-04-15 12:23 | 53.58674 | 14.89832 | 136 ft | 95 kts | 131° |
| 2026-04-15 12:23 | 53.58187 | 14.90770 | 306 ft | 113 kts | 133° |
| 2026-04-15 12:24 | 53.57620 | 14.91757 | 568 ft | 121 kts | 136° |
| 2026-04-15 12:24 | 53.57015 | 14.92830 | 863 ft | 129 kts | 132° |
| 2026-04-15 12:24 | 53.56419 | 14.93962 | 1149 ft | 130 kts | 131° |
| 2026-04-15 12:24 | 53.55793 | 14.95166 | 1273 ft | 143 kts | 131° |
| 2026-04-15 12:25 | 53.55214 | 14.96440 | 1628 ft | 133 kts | 110° |
| 2026-04-15 12:25 | 53.55211 | 14.97886 | 1930 ft | 122 kts | 57° |
| 2026-04-15 12:25 | 53.55910 | 14.98692 | 2254 ft | 125 kts | 24° |
| 2026-04-15 12:25 | 53.56696 | 14.99380 | 2636 ft | 129 kts | 26° |
| 2026-04-15 12:26 | 53.57490 | 15.00083 | 3025 ft | 129 kts | 25° |
| 2026-04-15 12:26 | 53.58289 | 15.00785 | 3454 ft | 130 kts | 24° |
| 2026-04-15 12:26 | 53.59117 | 15.01524 | 3743 ft | 143 kts | 25° |
| 2026-04-15 12:26 | 53.60025 | 15.02312 | 3951 ft | 152 kts | 24° |
| 2026-04-15 12:27 | 53.60979 | 15.03147 | 4221 ft | 157 kts | 26° |
| 2026-04-15 12:27 | 53.61961 | 15.04019 | 4454 ft | 161 kts | 25° |
| 2026-04-15 12:27 | 53.62969 | 15.04905 | 4659 ft | 165 kts | 25° |
| 2026-04-15 12:27 | 53.64033 | 15.05622 | 4866 ft | 165 kts | 8° |
| 2026-04-15 12:28 | 53.65175 | 15.05966 | 5113 ft | 170 kts | 7° |
| 2026-04-15 12:28 | 53.66369 | 15.06319 | 5214 ft | 177 kts | 7° |
| 2026-04-15 12:28 | 53.67585 | 15.06680 | 5351 ft | 182 kts | 7° |
| 2026-04-15 12:28 | 53.68838 | 15.07046 | 5471 ft | 184 kts | 7° |
| 2026-04-15 12:29 | 53.70105 | 15.07420 | 5567 ft | 186 kts | 7° |
| 2026-04-15 12:29 | 53.71380 | 15.07807 | 5723 ft | 186 kts | 7° |
| 2026-04-15 12:29 | 53.72660 | 15.08189 | 5857 ft | 187 kts | 7° |
| 2026-04-15 12:29 | 53.73944 | 15.08576 | 5978 ft | 188 kts | 6° |
| 2026-04-15 12:30 | 53.75228 | 15.08986 | 6137 ft | 188 kts | 7° |
| 2026-04-15 12:30 | 53.76513 | 15.09393 | 6292 ft | 188 kts | 7° |
| 2026-04-15 12:30 | 53.77803 | 15.09809 | 6410 ft | 189 kts | 7° |
| 2026-04-15 12:30 | 53.79093 | 15.10223 | 6507 ft | 189 kts | 7° |
| 2026-04-15 12:31 | 53.80269 | 15.10606 | 6610 ft | 189 kts | 7° |
| 2026-04-15 12:31 | 53.81564 | 15.11027 | 6705 ft | 190 kts | 7° |
| 2026-04-15 12:31 | 53.82860 | 15.11458 | 6833 ft | 190 kts | 7° |
| 2026-04-15 12:31 | 53.84143 | 15.11896 | 6944 ft | 190 kts | 8° |
| 2026-04-15 12:32 | 53.85438 | 15.12344 | 7067 ft | 190 kts | 7° |
| 2026-04-15 12:32 | 53.86737 | 15.12784 | 7185 ft | 190 kts | 7° |
| 2026-04-15 12:32 | 53.88033 | 15.13241 | 7288 ft | 190 kts | 7° |
| 2026-04-15 12:32 | 53.89327 | 15.13704 | 7382 ft | 190 kts | 8° |
| 2026-04-15 12:33 | 53.90622 | 15.14173 | 7474 ft | 190 kts | 7° |
| 2026-04-15 12:33 | 53.91917 | 15.14624 | 7587 ft | 190 kts | 6° |
| 2026-04-15 12:33 | 53.93198 | 15.15068 | 7735 ft | 190 kts | 6° |
| 2026-04-15 12:33 | 53.94498 | 15.15521 | 7857 ft | 190 kts | 6° |
| 2026-04-15 12:34 | 53.95798 | 15.15979 | 7965 ft | 191 kts | 6° |
| 2026-04-15 12:34 | 53.97098 | 15.16442 | 8050 ft | 191 kts | 6° |
| 2026-04-15 12:34 | 53.98405 | 15.16915 | 8154 ft | 192 kts | 7° |
| 2026-04-15 12:34 | 53.99707 | 15.17401 | 8239 ft | 192 kts | 6° |
| 2026-04-15 12:35 | 54.01012 | 15.17891 | 8343 ft | 192 kts | 7° |
| 2026-04-15 12:35 | 54.02316 | 15.18381 | 8459 ft | 192 kts | 6° |
| 2026-04-15 12:35 | 54.03627 | 15.18882 | 8564 ft | 192 kts | 7° |
| 2026-04-15 12:35 | 54.04916 | 15.19391 | 8667 ft | 193 kts | 7° |
| 2026-04-15 12:36 | 54.06220 | 15.19910 | 8761 ft | 193 kts | 7° |
| 2026-04-15 12:36 | 54.07492 | 15.20664 | 8842 ft | 202 kts | 29° |
| 2026-04-15 12:36 | 54.08346 | 15.22630 | 8922 ft | 213 kts | 60° |
| 2026-04-15 12:36 | 54.08936 | 15.24952 | 9015 ft | 214 kts | 62° |
| 2026-04-15 12:37 | 54.09516 | 15.27296 | 9116 ft | 214 kts | 63° |
| 2026-04-15 12:37 | 54.10105 | 15.29683 | 9057 ft | 221 kts | 63° |
| 2026-04-15 12:37 | 54.10702 | 15.32098 | 8977 ft | 226 kts | 63° |
| 2026-04-15 12:37 | 54.11315 | 15.34570 | 8907 ft | 228 kts | 63° |
| 2026-04-15 12:38 | 54.11934 | 15.37067 | 8835 ft | 229 kts | 63° |
| 2026-04-15 12:38 | 54.12555 | 15.39564 | 8774 ft | 229 kts | 63° |
| 2026-04-15 12:38 | 54.13177 | 15.42073 | 8715 ft | 229 kts | 63° |
| 2026-04-15 12:38 | 54.13830 | 15.44543 | 8648 ft | 226 kts | 53° |
| 2026-04-15 12:39 | 54.14994 | 15.46161 | 8571 ft | 212 kts | 13° |
| 2026-04-15 12:39 | 54.16407 | 15.46223 | 8515 ft | 200 kts | 344° |
| 2026-04-15 12:39 | 54.17738 | 15.45670 | 8440 ft | 196 kts | 334° |
| 2026-04-15 12:39 | 54.18696 | 15.44152 | 8332 ft | 190 kts | 294° |
| 2026-04-15 12:40 | 54.18838 | 15.41933 | 8257 ft | 191 kts | 266° |
| 2026-04-15 12:40 | 54.18573 | 15.39716 | 8231 ft | 191 kts | 258° |
| 2026-04-15 12:40 | 54.18218 | 15.37539 | 8197 ft | 190 kts | 257° |
| 2026-04-15 12:40 | 54.17851 | 15.35361 | 8165 ft | 190 kts | 257° |
| 2026-04-15 12:41 | 54.17483 | 15.33195 | 8130 ft | 190 kts | 257° |
| 2026-04-15 12:41 | 54.17114 | 15.31028 | 8095 ft | 190 kts | 257° |
| 2026-04-15 12:41 | 54.16752 | 15.28887 | 8054 ft | 190 kts | 257° |
| 2026-04-15 12:41 | 54.16387 | 15.26724 | 8046 ft | 189 kts | 257° |
| 2026-04-15 12:42 | 54.15934 | 15.24614 | 8048 ft | 189 kts | 251° |
| 2026-04-15 12:42 | 54.15414 | 15.22555 | 8053 ft | 189 kts | 250° |
| 2026-04-15 12:42 | 54.14891 | 15.20507 | 8063 ft | 188 kts | 250° |
| 2026-04-15 12:42 | 54.14366 | 15.18455 | 8065 ft | 188 kts | 250° |
| 2026-04-15 12:43 | 54.13844 | 15.16408 | 8071 ft | 188 kts | 250° |
| 2026-04-15 12:43 | 54.13329 | 15.14387 | 8079 ft | 188 kts | 250° |
| 2026-04-15 12:43 | 54.12807 | 15.12340 | 8083 ft | 188 kts | 250° |
| 2026-04-15 12:43 | 54.12285 | 15.10292 | 8087 ft | 188 kts | 250° |
| 2026-04-15 12:44 | 54.11763 | 15.08239 | 8094 ft | 188 kts | 250° |
| 2026-04-15 12:44 | 54.11241 | 15.06191 | 8098 ft | 188 kts | 250° |
| 2026-04-15 12:44 | 54.10720 | 15.04142 | 8103 ft | 188 kts | 250° |
| 2026-04-15 12:44 | 54.10197 | 15.02090 | 8107 ft | 188 kts | 250° |
| 2026-04-15 12:45 | 54.09682 | 15.00063 | 8113 ft | 188 kts | 250° |
| 2026-04-15 12:45 | 54.09162 | 14.98013 | 8118 ft | 188 kts | 250° |
| 2026-04-15 12:45 | 54.08628 | 14.95976 | 8132 ft | 188 kts | 250° |
| 2026-04-15 12:45 | 54.08087 | 14.93941 | 8139 ft | 189 kts | 250° |
| 2026-04-15 12:46 | 54.07544 | 14.91903 | 8142 ft | 189 kts | 250° |
| 2026-04-15 12:46 | 53.99841 | 14.56948 | 8136 ft | 12553 kts | 250° |
| 2026-04-15 12:46 | 53.95583 | 14.37507 | 8130 ft | 188 kts | 251° |
| 2026-04-15 12:46 | 53.95012 | 14.34716 | 8132 ft | 186 kts | 266° |
| 2026-04-15 12:47 | 53.95133 | 14.32579 | 8134 ft | 184 kts | 282° |
| 2026-04-15 12:47 | 53.95418 | 14.30453 | 8142 ft | 185 kts | 283° |
| 2026-04-15 12:47 | 53.95614 | 14.29035 | 8146 ft | 185 kts | 283° |
| 2026-04-15 12:47 | 53.95911 | 14.26910 | 8154 ft | 185 kts | 284° |
| 2026-04-15 12:48 | 53.96209 | 14.24786 | 8156 ft | 185 kts | 284° |
| 2026-04-15 12:48 | 53.96510 | 14.22652 | 8168 ft | 185 kts | 284° |
| 2026-04-15 12:48 | 53.96810 | 14.20521 | 8172 ft | 185 kts | 284° |
| 2026-04-15 12:48 | 53.97109 | 14.18419 | 8179 ft | 185 kts | 284° |
| 2026-04-15 12:49 | 53.97412 | 14.16288 | 8185 ft | 185 kts | 284° |
| 2026-04-15 12:49 | 53.97715 | 14.14163 | 8194 ft | 185 kts | 284° |
| 2026-04-15 12:49 | 53.98017 | 14.12044 | 8203 ft | 185 kts | 284° |
| 2026-04-15 12:49 | 53.98321 | 14.09916 | 8216 ft | 185 kts | 284° |
| 2026-04-15 12:50 | 53.98627 | 14.07792 | 8244 ft | 185 kts | 284° |
| 2026-04-15 12:50 | 53.99235 | 14.05883 | 8251 ft | 186 kts | 307° |
| 2026-04-15 12:50 | 54.03183 | 13.97261 | 8257 ft | 186 kts | 307° |
| 2026-04-15 12:50 | 54.04042 | 13.95601 | 8258 ft | 187 kts | 309° |
| 2026-04-15 12:51 | 54.04910 | 13.93955 | 8268 ft | 187 kts | 309° |
| 2026-04-15 12:51 | 54.05775 | 13.92303 | 8270 ft | 187 kts | 309° |
| 2026-04-15 12:51 | 54.06629 | 13.90670 | 8282 ft | 187 kts | 309° |
| 2026-04-15 12:51 | 54.07494 | 13.89015 | 8293 ft | 187 kts | 309° |
| 2026-04-15 12:52 | 54.08358 | 13.87361 | 8309 ft | 187 kts | 309° |
| 2026-04-15 12:52 | 54.09227 | 13.85703 | 8319 ft | 187 kts | 309° |
| 2026-04-15 12:52 | 54.10096 | 13.84044 | 8333 ft | 187 kts | 309° |
| 2026-04-15 12:52 | 54.10966 | 13.82385 | 8338 ft | 188 kts | 309° |
| 2026-04-15 12:53 | 54.11838 | 13.80723 | 8339 ft | 188 kts | 309° |
| 2026-04-15 12:53 | 54.12699 | 13.79086 | 8339 ft | 188 kts | 309° |
| 2026-04-15 12:53 | 54.13571 | 13.77429 | 8335 ft | 188 kts | 309° |
| 2026-04-15 12:53 | 54.14435 | 13.75759 | 8338 ft | 187 kts | 308° |
| 2026-04-15 12:54 | 54.15292 | 13.74081 | 8333 ft | 187 kts | 308° |
| 2026-04-15 12:54 | 54.16148 | 13.72400 | 8331 ft | 187 kts | 308° |
| 2026-04-15 12:54 | 54.17006 | 13.70717 | 8330 ft | 187 kts | 308° |
| 2026-04-15 12:54 | 54.17859 | 13.69040 | 8333 ft | 187 kts | 308° |
| 2026-04-15 12:55 | 54.18709 | 13.67380 | 8329 ft | 187 kts | 308° |
| 2026-04-15 12:55 | 54.19568 | 13.65703 | 8327 ft | 187 kts | 308° |
| 2026-04-15 12:55 | 54.20425 | 13.64031 | 8320 ft | 187 kts | 308° |
| 2026-04-15 12:55 | 54.21282 | 13.62361 | 8314 ft | 187 kts | 308° |
| 2026-04-15 12:56 | 54.22143 | 13.60685 | 8308 ft | 187 kts | 308° |
| 2026-04-15 12:56 | 54.23002 | 13.59014 | 8303 ft | 187 kts | 308° |
| 2026-04-15 12:56 | 54.23864 | 13.57341 | 8307 ft | 187 kts | 308° |
| 2026-04-15 12:56 | 54.24726 | 13.55670 | 8309 ft | 187 kts | 308° |
| 2026-04-15 12:57 | 54.25576 | 13.54023 | 8306 ft | 187 kts | 308° |
| 2026-04-15 12:57 | 54.26438 | 13.52354 | 8303 ft | 187 kts | 308° |
| 2026-04-15 12:57 | 54.27305 | 13.50680 | 8300 ft | 187 kts | 308° |
| 2026-04-15 12:57 | 54.28169 | 13.49013 | 8294 ft | 187 kts | 308° |
| 2026-04-15 12:58 | 54.29032 | 13.47348 | 8288 ft | 187 kts | 308° |
| 2026-04-15 12:58 | 54.29896 | 13.45683 | 8283 ft | 187 kts | 308° |
| 2026-04-15 12:58 | 54.30761 | 13.44017 | 8277 ft | 187 kts | 308° |
| 2026-04-15 12:58 | 54.39336 | 13.25725 | 8283 ft | 186 kts | 307° |
| 2026-04-15 12:59 | 54.39987 | 13.21678 | 8264 ft | 183 kts | 271° |
| 2026-04-15 12:59 | 54.40020 | 13.19496 | 8272 ft | 183 kts | 273° |
| 2026-04-15 12:59 | 54.40063 | 13.17311 | 8270 ft | 183 kts | 272° |
| 2026-04-15 13:00 | 54.40103 | 13.15124 | 8264 ft | 183 kts | 272° |
| 2026-04-15 13:00 | 54.39941 | 13.12962 | 8255 ft | 184 kts | 258° |
| 2026-04-15 13:00 | 54.39600 | 13.10836 | 8252 ft | 185 kts | 257° |
| 2026-04-15 13:00 | 54.39246 | 13.08712 | 8250 ft | 185 kts | 256° |
| 2026-04-15 13:01 | 54.38734 | 13.06686 | 8242 ft | 185 kts | 250° |
| 2026-04-15 13:01 | 54.38268 | 13.04659 | 8236 ft | 185 kts | 252° |
| 2026-04-15 13:01 | 54.37789 | 13.02602 | 8242 ft | 186 kts | 251° |
| 2026-04-15 13:01 | 54.37291 | 13.00552 | 8240 ft | 186 kts | 250° |
| 2026-04-15 13:02 | 54.35069 | 12.90055 | 8234 ft | 186 kts | 248° |
| 2026-04-15 13:02 | 54.34368 | 12.88167 | 8223 ft | 187 kts | 242° |
| 2026-04-15 13:02 | 54.33764 | 12.86193 | 8222 ft | 186 kts | 249° |
| 2026-04-15 13:02 | 54.33262 | 12.84148 | 8220 ft | 186 kts | 251° |
| 2026-04-15 13:03 | 54.32766 | 12.82095 | 8221 ft | 187 kts | 251° |
| 2026-04-15 13:03 | 54.32263 | 12.80045 | 8223 ft | 187 kts | 250° |
| 2026-04-15 13:03 | 54.31757 | 12.77993 | 8228 ft | 187 kts | 250° |
| 2026-04-15 13:03 | 54.31252 | 12.75945 | 8228 ft | 187 kts | 250° |
| 2026-04-15 13:04 | 54.30745 | 12.73895 | 8226 ft | 187 kts | 250° |
| 2026-04-15 13:04 | 54.30239 | 12.71842 | 8225 ft | 187 kts | 250° |
| 2026-04-15 13:04 | 54.29738 | 12.69815 | 8257 ft | 187 kts | 250° |
| 2026-04-15 13:04 | 54.29227 | 12.67755 | 8307 ft | 187 kts | 250° |
| 2026-04-15 13:05 | 54.28718 | 12.65701 | 8321 ft | 187 kts | 250° |
| 2026-04-15 13:05 | 54.28208 | 12.63642 | 8325 ft | 187 kts | 250° |
| 2026-04-15 13:05 | 54.27698 | 12.61586 | 8318 ft | 188 kts | 250° |
| 2026-04-15 13:05 | 54.27187 | 12.59532 | 8321 ft | 188 kts | 250° |
| 2026-04-15 13:06 | 54.26676 | 12.57477 | 8324 ft | 188 kts | 250° |
| 2026-04-15 13:06 | 54.26165 | 12.55420 | 8315 ft | 188 kts | 250° |
| 2026-04-15 13:06 | 54.25657 | 12.53384 | 8319 ft | 188 kts | 250° |
| 2026-04-15 13:06 | 54.25143 | 12.51323 | 8328 ft | 188 kts | 250° |
| 2026-04-15 13:07 | 54.24629 | 12.49264 | 8329 ft | 188 kts | 250° |
| 2026-04-15 13:07 | 54.24114 | 12.47203 | 8336 ft | 188 kts | 250° |
| 2026-04-15 13:07 | 54.23598 | 12.45140 | 8342 ft | 188 kts | 250° |
| 2026-04-15 13:07 | 54.23082 | 12.43077 | 8346 ft | 188 kts | 250° |
| 2026-04-15 13:08 | 54.22565 | 12.41015 | 8347 ft | 188 kts | 250° |
| 2026-04-15 13:08 | 54.22048 | 12.38956 | 8361 ft | 188 kts | 250° |
| 2026-04-15 13:08 | 54.21538 | 12.36924 | 8355 ft | 188 kts | 250° |
| 2026-04-15 13:08 | 54.21021 | 12.34865 | 8361 ft | 188 kts | 250° |
| 2026-04-15 13:09 | 54.20504 | 12.32806 | 8376 ft | 188 kts | 250° |
| 2026-04-15 13:09 | 54.19985 | 12.30749 | 8400 ft | 188 kts | 250° |
| 2026-04-15 13:09 | 54.19469 | 12.28694 | 8424 ft | 188 kts | 250° |
| 2026-04-15 13:09 | 54.18950 | 12.26640 | 8426 ft | 188 kts | 250° |
| 2026-04-15 13:10 | 54.18437 | 12.24608 | 8411 ft | 188 kts | 250° |
| 2026-04-15 13:10 | 54.17918 | 12.22554 | 8423 ft | 188 kts | 250° |
| 2026-04-15 13:10 | 54.17399 | 12.20498 | 8427 ft | 189 kts | 250° |
| 2026-04-15 13:10 | 54.16876 | 12.18433 | 8447 ft | 190 kts | 250° |
| 2026-04-15 13:11 | 54.16349 | 12.16350 | 8420 ft | 191 kts | 250° |
| 2026-04-15 13:11 | 54.15817 | 12.14256 | 8409 ft | 192 kts | 250° |
| 2026-04-15 13:11 | 54.15285 | 12.12159 | 8404 ft | 193 kts | 250° |
| 2026-04-15 13:11 | 54.14751 | 12.10056 | 8416 ft | 193 kts | 250° |
| 2026-04-15 13:12 | 54.14221 | 12.07973 | 8414 ft | 193 kts | 249° |
| 2026-04-15 13:12 | 54.13684 | 12.05863 | 8418 ft | 195 kts | 249° |
| 2026-04-15 13:12 | 54.13142 | 12.03735 | 8355 ft | 196 kts | 249° |
| 2026-04-15 13:12 | 54.12596 | 12.01595 | 8275 ft | 197 kts | 249° |
| 2026-04-15 13:13 | 54.12048 | 11.99446 | 8200 ft | 197 kts | 249° |
| 2026-04-15 13:13 | 54.11500 | 11.97302 | 8110 ft | 197 kts | 249° |
| 2026-04-15 13:13 | 54.10949 | 11.95150 | 8025 ft | 198 kts | 249° |
| 2026-04-15 13:13 | 54.10406 | 11.93028 | 7942 ft | 198 kts | 249° |
| 2026-04-15 13:14 | 54.09856 | 11.90882 | 7885 ft | 198 kts | 249° |
| 2026-04-15 13:14 | 54.09305 | 11.88736 | 7828 ft | 198 kts | 249° |
| 2026-04-15 13:14 | 54.08755 | 11.86589 | 7758 ft | 198 kts | 249° |
| 2026-04-15 13:14 | 54.08205 | 11.84447 | 7688 ft | 198 kts | 249° |
| 2026-04-15 13:15 | 54.07652 | 11.82301 | 7620 ft | 198 kts | 249° |
| 2026-04-15 13:15 | 54.07099 | 11.80154 | 7571 ft | 198 kts | 248° |
| 2026-04-15 13:15 | 54.06547 | 11.78013 | 7520 ft | 197 kts | 248° |
| 2026-04-15 13:15 | 54.05995 | 11.75870 | 7440 ft | 197 kts | 248° |
| 2026-04-15 13:16 | 54.05437 | 11.73715 | 7235 ft | 201 kts | 248° |
| 2026-04-15 13:16 | 54.04882 | 11.71556 | 6956 ft | 202 kts | 248° |
| 2026-04-15 13:16 | 54.04316 | 11.69372 | 6717 ft | 200 kts | 248° |
| 2026-04-15 13:16 | 54.03757 | 11.67214 | 6525 ft | 198 kts | 247° |
| 2026-04-15 13:17 | 54.03207 | 11.65094 | 6407 ft | 194 kts | 247° |
| 2026-04-15 13:17 | 54.02665 | 11.63007 | 6291 ft | 192 kts | 247° |
| 2026-04-15 13:17 | 54.02128 | 11.60935 | 6174 ft | 191 kts | 247° |
| 2026-04-15 13:17 | 54.01590 | 11.58868 | 6047 ft | 190 kts | 247° |
| 2026-04-15 13:18 | 54.01055 | 11.56813 | 5920 ft | 190 kts | 248° |
| 2026-04-15 13:18 | 54.00527 | 11.54782 | 5801 ft | 189 kts | 247° |
| 2026-04-15 13:18 | 53.99994 | 11.52736 | 5683 ft | 189 kts | 246° |
| 2026-04-15 13:18 | 53.99457 | 11.50686 | 5574 ft | 189 kts | 247° |
| 2026-04-15 13:19 | 53.98926 | 11.48657 | 5504 ft | 187 kts | 246° |
| 2026-04-15 13:19 | 53.98401 | 11.46634 | 5434 ft | 187 kts | 246° |
| 2026-04-15 13:19 | 53.97874 | 11.44619 | 5347 ft | 186 kts | 246° |
| 2026-04-15 13:19 | 53.97347 | 11.42612 | 5270 ft | 186 kts | 246° |
| 2026-04-15 13:20 | 53.96822 | 11.40604 | 5224 ft | 186 kts | 246° |
| 2026-04-15 13:20 | 53.96299 | 11.38620 | 5164 ft | 186 kts | 246° |
| 2026-04-15 13:20 | 53.95774 | 11.36615 | 5066 ft | 186 kts | 246° |
| 2026-04-15 13:20 | 53.95247 | 11.34609 | 4969 ft | 186 kts | 246° |
| 2026-04-15 13:21 | 53.94720 | 11.32606 | 4902 ft | 185 kts | 246° |
| 2026-04-15 13:21 | 53.94195 | 11.30610 | 4811 ft | 185 kts | 246° |
| 2026-04-15 13:21 | 53.93668 | 11.28609 | 4715 ft | 185 kts | 246° |
| 2026-04-15 13:21 | 53.93142 | 11.26615 | 4623 ft | 185 kts | 245° |
| 2026-04-15 13:22 | 53.92616 | 11.24619 | 4562 ft | 185 kts | 245° |
| 2026-04-15 13:22 | 53.92089 | 11.22626 | 4490 ft | 185 kts | 245° |
| 2026-04-15 13:22 | 53.91593 | 11.20749 | 4437 ft | 186 kts | 245° |
| 2026-04-15 13:22 | 53.91075 | 11.18795 | 4367 ft | 183 kts | 245° |
| 2026-04-15 13:23 | 53.90556 | 11.16829 | 4271 ft | 181 kts | 245° |
| 2026-04-15 13:23 | 53.90039 | 11.14880 | 4225 ft | 181 kts | 245° |
| 2026-04-15 13:23 | 53.89523 | 11.12939 | 4143 ft | 180 kts | 245° |
| 2026-04-15 13:23 | 53.89009 | 11.11000 | 4105 ft | 180 kts | 245° |
| 2026-04-15 13:24 | 53.89006 | 11.10990 | 4108 ft | 180 kts | 246° |
| 2026-04-15 13:24 | 53.88684 | 11.09778 | 4077 ft | 180 kts | 245° |
| 2026-04-15 13:24 | 53.88170 | 11.07844 | 3992 ft | 179 kts | 244° |
| 2026-04-15 13:25 | 53.87663 | 11.05942 | 3916 ft | 179 kts | 245° |
| 2026-04-15 13:25 | 53.87151 | 11.04026 | 3773 ft | 176 kts | 245° |
| 2026-04-15 13:25 | 53.86636 | 11.02168 | 3552 ft | 172 kts | 243° |
| 2026-04-15 13:25 | 53.86135 | 11.00336 | 3294 ft | 171 kts | 245° |
| 2026-04-15 13:26 | 53.85679 | 10.98484 | 3093 ft | 169 kts | 247° |
| 2026-04-15 13:26 | 53.85257 | 10.96626 | 2893 ft | 169 kts | 248° |
| 2026-04-15 13:26 | 53.84850 | 10.94756 | 2684 ft | 170 kts | 249° |
| 2026-04-15 13:26 | 53.84452 | 10.92859 | 2443 ft | 171 kts | 249° |
| 2026-04-15 13:27 | 53.84086 | 10.90968 | 2325 ft | 166 kts | 251° |
| 2026-04-15 13:27 | 53.83775 | 10.89188 | 2139 ft | 151 kts | 252° |
| 2026-04-15 13:27 | 53.83494 | 10.87531 | 1934 ft | 141 kts | 252° |
| 2026-04-15 13:27 | 53.83220 | 10.85987 | 1724 ft | 130 kts | 251° |
| 2026-04-15 13:28 | 53.82975 | 10.84635 | 1487 ft | 113 kts | 250° |